sensor_id;sensor_type;location;lat;lon;timestamp;P1;durP1;ratioP1;P2;durP2;ratioP2
61903;SDS011;47857;52.270;6.804;2024-01-30T00:02:15;14.82;;;8.82;;
61903;SDS011;47857;52.270;6.804;2024-01-30T00:04:41;12.70;;;8.70;;
61903;SDS011;47857;52.270;6.804;2024-01-30T00:07:07;15.10;;;8.98;;
61903;SDS011;47857;52.270;6.804;2024-01-30T00:09:32;14.55;;;8.68;;
61903;SDS011;47857;52.270;6.804;2024-01-30T00:11:58;15.85;;;8.73;;
61903;SDS011;47857;52.270;6.804;2024-01-30T00:14:23;17.13;;;9.10;;
61903;SDS011;47857;52.270;6.804;2024-01-30T00:16:50;16.10;;;9.10;;
61903;SDS011;47857;52.270;6.804;2024-01-30T00:19:16;13.52;;;8.88;;
61903;SDS011;47857;52.270;6.804;2024-01-30T00:21:41;18.15;;;8.85;;
61903;SDS011;47857;52.270;6.804;2024-01-30T00:24:07;15.35;;;9.25;;
61903;SDS011;47857;52.270;6.804;2024-01-30T00:26:32;16.02;;;9.30;;
61903;SDS011;47857;52.270;6.804;2024-01-30T00:28:58;16.10;;;9.02;;
61903;SDS011;47857;52.270;6.804;2024-01-30T00:31:24;16.15;;;9.20;;
61903;SDS011;47857;52.270;6.804;2024-01-30T00:33:50;15.15;;;8.73;;
61903;SDS011;47857;52.270;6.804;2024-01-30T00:36:15;15.52;;;8.60;;
61903;SDS011;47857;52.270;6.804;2024-01-30T00:38:41;16.70;;;8.85;;
61903;SDS011;47857;52.270;6.804;2024-01-30T00:41:07;16.50;;;8.93;;
61903;SDS011;47857;52.270;6.804;2024-01-30T00:43:33;14.02;;;8.63;;
61903;SDS011;47857;52.270;6.804;2024-01-30T00:45:59;13.88;;;8.90;;
61903;SDS011;47857;52.270;6.804;2024-01-30T00:48:25;14.00;;;9.00;;
61903;SDS011;47857;52.270;6.804;2024-01-30T00:50:50;14.25;;;8.88;;
61903;SDS011;47857;52.270;6.804;2024-01-30T00:53:16;13.60;;;8.60;;
61903;SDS011;47857;52.270;6.804;2024-01-30T00:55:41;13.25;;;8.68;;
61903;SDS011;47857;52.270;6.804;2024-01-30T00:58:07;16.15;;;9.07;;
61903;SDS011;47857;52.270;6.804;2024-01-30T01:00:33;17.80;;;8.57;;
61903;SDS011;47857;52.270;6.804;2024-01-30T01:02:58;13.90;;;8.13;;
61903;SDS011;47857;52.270;6.804;2024-01-30T01:05:24;19.33;;;9.00;;
61903;SDS011;47857;52.270;6.804;2024-01-30T01:07:50;14.25;;;8.50;;
61903;SDS011;47857;52.270;6.804;2024-01-30T01:10:16;15.52;;;8.05;;
61903;SDS011;47857;52.270;6.804;2024-01-30T01:12:42;13.88;;;8.20;;
61903;SDS011;47857;52.270;6.804;2024-01-30T01:15:08;15.30;;;9.00;;
61903;SDS011;47857;52.270;6.804;2024-01-30T01:17:37;16.15;;;8.20;;
61903;SDS011;47857;52.270;6.804;2024-01-30T01:20:04;14.98;;;8.52;;
61903;SDS011;47857;52.270;6.804;2024-01-30T01:22:33;15.32;;;8.75;;
61903;SDS011;47857;52.270;6.804;2024-01-30T01:24:59;23.27;;;9.32;;
61903;SDS011;47857;52.270;6.804;2024-01-30T01:27:25;14.93;;;8.88;;
61903;SDS011;47857;52.270;6.804;2024-01-30T01:29:51;16.00;;;9.23;;
61903;SDS011;47857;52.270;6.804;2024-01-30T01:32:16;13.80;;;8.65;;
61903;SDS011;47857;52.270;6.804;2024-01-30T01:34:42;14.50;;;9.05;;
61903;SDS011;47857;52.270;6.804;2024-01-30T01:37:07;14.98;;;9.27;;
61903;SDS011;47857;52.270;6.804;2024-01-30T01:39:33;18.33;;;9.40;;
61903;SDS011;47857;52.270;6.804;2024-01-30T01:41:59;14.80;;;9.45;;
61903;SDS011;47857;52.270;6.804;2024-01-30T01:44:24;14.57;;;9.27;;
61903;SDS011;47857;52.270;6.804;2024-01-30T01:46:50;15.18;;;9.38;;
61903;SDS011;47857;52.270;6.804;2024-01-30T01:49:16;15.15;;;8.82;;
61903;SDS011;47857;52.270;6.804;2024-01-30T01:51:42;16.17;;;9.43;;
61903;SDS011;47857;52.270;6.804;2024-01-30T01:54:09;16.63;;;9.43;;
61903;SDS011;47857;52.270;6.804;2024-01-30T01:56:35;17.42;;;9.40;;
61903;SDS011;47857;52.270;6.804;2024-01-30T01:59:05;20.05;;;9.90;;
61903;SDS011;47857;52.270;6.804;2024-01-30T02:01:37;16.15;;;9.63;;
61903;SDS011;47857;52.270;6.804;2024-01-30T02:04:06;17.73;;;9.20;;
61903;SDS011;47857;52.270;6.804;2024-01-30T02:06:32;14.80;;;9.30;;
61903;SDS011;47857;52.270;6.804;2024-01-30T02:08:59;16.30;;;9.93;;
61903;SDS011;47857;52.270;6.804;2024-01-30T02:11:24;16.00;;;9.85;;
61903;SDS011;47857;52.270;6.804;2024-01-30T02:13:50;15.88;;;9.30;;
61903;SDS011;47857;52.270;6.804;2024-01-30T02:16:15;16.98;;;9.63;;
61903;SDS011;47857;52.270;6.804;2024-01-30T02:18:44;16.20;;;9.65;;
61903;SDS011;47857;52.270;6.804;2024-01-30T02:21:12;15.27;;;9.32;;
61903;SDS011;47857;52.270;6.804;2024-01-30T02:23:47;14.80;;;9.20;;
61903;SDS011;47857;52.270;6.804;2024-01-30T02:26:13;17.85;;;9.95;;
61903;SDS011;47857;52.270;6.804;2024-01-30T02:28:39;17.65;;;9.65;;
61903;SDS011;47857;52.270;6.804;2024-01-30T02:31:04;18.77;;;10.13;;
61903;SDS011;47857;52.270;6.804;2024-01-30T02:33:30;16.38;;;9.60;;
61903;SDS011;47857;52.270;6.804;2024-01-30T02:35:56;15.90;;;9.82;;
61903;SDS011;47857;52.270;6.804;2024-01-30T02:38:22;16.98;;;9.95;;
61903;SDS011;47857;52.270;6.804;2024-01-30T02:40:48;16.63;;;9.82;;
61903;SDS011;47857;52.270;6.804;2024-01-30T02:43:14;18.20;;;9.93;;
61903;SDS011;47857;52.270;6.804;2024-01-30T02:45:40;17.05;;;9.40;;
61903;SDS011;47857;52.270;6.804;2024-01-30T02:48:06;20.15;;;9.85;;
61903;SDS011;47857;52.270;6.804;2024-01-30T02:50:34;15.60;;;9.88;;
61903;SDS011;47857;52.270;6.804;2024-01-30T02:53:00;16.83;;;10.35;;
61903;SDS011;47857;52.270;6.804;2024-01-30T02:55:25;15.75;;;9.70;;
61903;SDS011;47857;52.270;6.804;2024-01-30T02:57:51;17.25;;;9.75;;
61903;SDS011;47857;52.270;6.804;2024-01-30T03:00:17;19.45;;;9.82;;
61903;SDS011;47857;52.270;6.804;2024-01-30T03:02:44;15.93;;;9.63;;
61903;SDS011;47857;52.270;6.804;2024-01-30T03:05:10;17.92;;;9.30;;
61903;SDS011;47857;52.270;6.804;2024-01-30T03:07:35;15.15;;;9.02;;
61903;SDS011;47857;52.270;6.804;2024-01-30T03:10:01;15.18;;;9.05;;
61903;SDS011;47857;52.270;6.804;2024-01-30T03:12:26;20.50;;;9.70;;
61903;SDS011;47857;52.270;6.804;2024-01-30T03:14:52;15.30;;;9.43;;
61903;SDS011;47857;52.270;6.804;2024-01-30T03:17:17;14.85;;;9.68;;
61903;SDS011;47857;52.270;6.804;2024-01-30T03:19:43;19.33;;;10.25;;
61903;SDS011;47857;52.270;6.804;2024-01-30T03:22:08;15.10;;;9.85;;
61903;SDS011;47857;52.270;6.804;2024-01-30T03:24:34;15.90;;;9.85;;
61903;SDS011;47857;52.270;6.804;2024-01-30T03:27:00;16.83;;;9.68;;
61903;SDS011;47857;52.270;6.804;2024-01-30T03:29:25;14.75;;;9.75;;
61903;SDS011;47857;52.270;6.804;2024-01-30T03:31:51;17.08;;;9.70;;
61903;SDS011;47857;52.270;6.804;2024-01-30T03:34:16;15.82;;;10.15;;
61903;SDS011;47857;52.270;6.804;2024-01-30T03:36:41;20.52;;;10.15;;
61903;SDS011;47857;52.270;6.804;2024-01-30T03:39:07;15.82;;;9.40;;
61903;SDS011;47857;52.270;6.804;2024-01-30T03:41:32;17.60;;;10.45;;
61903;SDS011;47857;52.270;6.804;2024-01-30T03:43:58;14.68;;;9.85;;
61903;SDS011;47857;52.270;6.804;2024-01-30T03:46:24;15.82;;;9.65;;
61903;SDS011;47857;52.270;6.804;2024-01-30T03:48:49;16.55;;;9.68;;
61903;SDS011;47857;52.270;6.804;2024-01-30T03:51:15;16.40;;;10.18;;
61903;SDS011;47857;52.270;6.804;2024-01-30T03:53:41;14.25;;;9.23;;
61903;SDS011;47857;52.270;6.804;2024-01-30T03:56:07;18.17;;;10.20;;
61903;SDS011;47857;52.270;6.804;2024-01-30T03:58:33;16.25;;;10.07;;
61903;SDS011;47857;52.270;6.804;2024-01-30T04:00:59;13.55;;;9.15;;
61903;SDS011;47857;52.270;6.804;2024-01-30T04:03:24;15.40;;;10.05;;
61903;SDS011;47857;52.270;6.804;2024-01-30T04:05:51;16.65;;;9.60;;
61903;SDS011;47857;52.270;6.804;2024-01-30T04:08:17;15.40;;;10.07;;
61903;SDS011;47857;52.270;6.804;2024-01-30T04:10:42;17.45;;;9.55;;
61903;SDS011;47857;52.270;6.804;2024-01-30T04:13:08;15.50;;;10.07;;
61903;SDS011;47857;52.270;6.804;2024-01-30T04:15:34;16.27;;;9.98;;
61903;SDS011;47857;52.270;6.804;2024-01-30T04:18:00;16.27;;;10.02;;
61903;SDS011;47857;52.270;6.804;2024-01-30T04:20:26;15.23;;;9.43;;
61903;SDS011;47857;52.270;6.804;2024-01-30T04:22:51;15.30;;;9.85;;
61903;SDS011;47857;52.270;6.804;2024-01-30T04:25:17;15.52;;;9.70;;
61903;SDS011;47857;52.270;6.804;2024-01-30T04:27:42;17.67;;;9.95;;
61903;SDS011;47857;52.270;6.804;2024-01-30T04:30:08;14.38;;;9.70;;
61903;SDS011;47857;52.270;6.804;2024-01-30T04:32:34;16.38;;;9.98;;
61903;SDS011;47857;52.270;6.804;2024-01-30T04:35:00;17.02;;;10.50;;
61903;SDS011;47857;52.270;6.804;2024-01-30T04:37:26;18.00;;;10.10;;
61903;SDS011;47857;52.270;6.804;2024-01-30T04:39:52;20.48;;;10.02;;
61903;SDS011;47857;52.270;6.804;2024-01-30T04:42:18;16.13;;;10.48;;
61903;SDS011;47857;52.270;6.804;2024-01-30T04:44:43;20.77;;;10.13;;
61903;SDS011;47857;52.270;6.804;2024-01-30T04:47:09;15.80;;;9.63;;
61903;SDS011;47857;52.270;6.804;2024-01-30T04:49:40;16.10;;;10.02;;
61903;SDS011;47857;52.270;6.804;2024-01-30T04:52:06;16.08;;;9.85;;
61903;SDS011;47857;52.270;6.804;2024-01-30T04:54:32;17.40;;;10.38;;
61903;SDS011;47857;52.270;6.804;2024-01-30T04:56:57;17.73;;;10.18;;
61903;SDS011;47857;52.270;6.804;2024-01-30T04:59:23;17.42;;;9.82;;
61903;SDS011;47857;52.270;6.804;2024-01-30T05:01:49;15.48;;;10.00;;
61903;SDS011;47857;52.270;6.804;2024-01-30T05:04:14;17.50;;;11.05;;
61903;SDS011;47857;52.270;6.804;2024-01-30T05:06:40;15.32;;;9.65;;
61903;SDS011;47857;52.270;6.804;2024-01-30T05:09:05;17.73;;;10.68;;
61903;SDS011;47857;52.270;6.804;2024-01-30T05:11:31;17.67;;;10.65;;
61903;SDS011;47857;52.270;6.804;2024-01-30T05:13:56;18.50;;;11.32;;
61903;SDS011;47857;52.270;6.804;2024-01-30T05:16:22;17.17;;;11.50;;
61903;SDS011;47857;52.270;6.804;2024-01-30T05:18:47;18.75;;;11.25;;
61903;SDS011;47857;52.270;6.804;2024-01-30T05:21:13;21.13;;;12.15;;
61903;SDS011;47857;52.270;6.804;2024-01-30T05:23:39;18.15;;;12.23;;
61903;SDS011;47857;52.270;6.804;2024-01-30T05:26:07;19.58;;;12.07;;
61903;SDS011;47857;52.270;6.804;2024-01-30T05:28:33;22.50;;;10.80;;
61903;SDS011;47857;52.270;6.804;2024-01-30T05:30:58;19.63;;;11.60;;
61903;SDS011;47857;52.270;6.804;2024-01-30T05:33:24;20.95;;;11.70;;
61903;SDS011;47857;52.270;6.804;2024-01-30T05:35:50;21.48;;;11.07;;
61903;SDS011;47857;52.270;6.804;2024-01-30T05:38:15;18.00;;;11.27;;
61903;SDS011;47857;52.270;6.804;2024-01-30T05:40:44;19.25;;;11.13;;
61903;SDS011;47857;52.270;6.804;2024-01-30T05:43:10;20.02;;;11.48;;
61903;SDS011;47857;52.270;6.804;2024-01-30T05:45:35;20.35;;;11.95;;
61903;SDS011;47857;52.270;6.804;2024-01-30T05:48:01;17.30;;;10.93;;
61903;SDS011;47857;52.270;6.804;2024-01-30T05:50:26;16.00;;;10.52;;
61903;SDS011;47857;52.270;6.804;2024-01-30T05:52:52;17.33;;;10.52;;
61903;SDS011;47857;52.270;6.804;2024-01-30T05:55:18;17.25;;;10.77;;
61903;SDS011;47857;52.270;6.804;2024-01-30T05:57:44;23.02;;;11.40;;
61903;SDS011;47857;52.270;6.804;2024-01-30T06:00:09;16.98;;;10.93;;
61903;SDS011;47857;52.270;6.804;2024-01-30T06:02:35;19.77;;;10.88;;
61903;SDS011;47857;52.270;6.804;2024-01-30T06:05:01;17.65;;;10.75;;
61903;SDS011;47857;52.270;6.804;2024-01-30T06:07:26;16.20;;;10.95;;
61903;SDS011;47857;52.270;6.804;2024-01-30T06:09:52;15.35;;;10.38;;
61903;SDS011;47857;52.270;6.804;2024-01-30T06:12:17;17.38;;;10.30;;
61903;SDS011;47857;52.270;6.804;2024-01-30T06:14:43;15.80;;;10.60;;
61903;SDS011;47857;52.270;6.804;2024-01-30T06:17:08;15.50;;;10.15;;
61903;SDS011;47857;52.270;6.804;2024-01-30T06:19:34;20.90;;;12.15;;
61903;SDS011;47857;52.270;6.804;2024-01-30T06:22:00;20.05;;;11.65;;
61903;SDS011;47857;52.270;6.804;2024-01-30T06:24:26;14.98;;;10.98;;
61903;SDS011;47857;52.270;6.804;2024-01-30T06:26:52;14.45;;;10.27;;
61903;SDS011;47857;52.270;6.804;2024-01-30T06:29:18;15.30;;;10.60;;
61903;SDS011;47857;52.270;6.804;2024-01-30T06:31:44;21.17;;;14.13;;
61903;SDS011;47857;52.270;6.804;2024-01-30T06:34:09;20.25;;;13.10;;
61903;SDS011;47857;52.270;6.804;2024-01-30T06:36:36;16.45;;;10.68;;
61903;SDS011;47857;52.270;6.804;2024-01-30T06:39:02;19.63;;;10.57;;
61903;SDS011;47857;52.270;6.804;2024-01-30T06:41:28;17.33;;;10.38;;
61903;SDS011;47857;52.270;6.804;2024-01-30T06:43:54;17.52;;;11.15;;
61903;SDS011;47857;52.270;6.804;2024-01-30T06:46:23;16.48;;;10.73;;
61903;SDS011;47857;52.270;6.804;2024-01-30T06:48:49;17.65;;;11.13;;
61903;SDS011;47857;52.270;6.804;2024-01-30T06:51:14;19.73;;;10.32;;
61903;SDS011;47857;52.270;6.804;2024-01-30T06:53:40;17.30;;;10.82;;
61903;SDS011;47857;52.270;6.804;2024-01-30T06:56:05;16.63;;;10.95;;
61903;SDS011;47857;52.270;6.804;2024-01-30T06:58:31;13.35;;;9.63;;
61903;SDS011;47857;52.270;6.804;2024-01-30T07:00:57;14.52;;;10.98;;
61903;SDS011;47857;52.270;6.804;2024-01-30T07:03:23;14.52;;;9.88;;
61903;SDS011;47857;52.270;6.804;2024-01-30T07:05:49;16.77;;;10.55;;
61903;SDS011;47857;52.270;6.804;2024-01-30T07:08:15;16.55;;;10.93;;
61903;SDS011;47857;52.270;6.804;2024-01-30T07:10:43;14.52;;;10.32;;
61903;SDS011;47857;52.270;6.804;2024-01-30T07:13:09;18.95;;;11.35;;
61903;SDS011;47857;52.270;6.804;2024-01-30T07:15:35;16.83;;;10.38;;
61903;SDS011;47857;52.270;6.804;2024-01-30T07:18:02;20.92;;;11.35;;
61903;SDS011;47857;52.270;6.804;2024-01-30T07:20:27;17.85;;;11.00;;
61903;SDS011;47857;52.270;6.804;2024-01-30T07:22:55;15.35;;;10.75;;
61903;SDS011;47857;52.270;6.804;2024-01-30T07:25:21;23.85;;;10.90;;
61903;SDS011;47857;52.270;6.804;2024-01-30T07:27:46;17.23;;;10.73;;
61903;SDS011;47857;52.270;6.804;2024-01-30T07:30:12;20.30;;;11.30;;
61903;SDS011;47857;52.270;6.804;2024-01-30T07:32:38;19.25;;;11.13;;
61903;SDS011;47857;52.270;6.804;2024-01-30T07:35:03;15.20;;;9.73;;
61903;SDS011;47857;52.270;6.804;2024-01-30T07:37:29;16.92;;;10.15;;
61903;SDS011;47857;52.270;6.804;2024-01-30T07:39:55;15.48;;;10.10;;
61903;SDS011;47857;52.270;6.804;2024-01-30T07:42:20;13.70;;;9.25;;
61903;SDS011;47857;52.270;6.804;2024-01-30T07:44:46;17.38;;;9.80;;
61903;SDS011;47857;52.270;6.804;2024-01-30T07:47:12;14.68;;;10.32;;
61903;SDS011;47857;52.270;6.804;2024-01-30T07:49:40;22.60;;;11.18;;
61903;SDS011;47857;52.270;6.804;2024-01-30T07:52:06;22.55;;;11.32;;
61903;SDS011;47857;52.270;6.804;2024-01-30T07:54:32;16.92;;;10.80;;
61903;SDS011;47857;52.270;6.804;2024-01-30T07:57:12;17.25;;;9.90;;
61903;SDS011;47857;52.270;6.804;2024-01-30T07:59:38;17.25;;;9.10;;
61903;SDS011;47857;52.270;6.804;2024-01-30T08:02:03;14.45;;;9.45;;
61903;SDS011;47857;52.270;6.804;2024-01-30T08:04:29;12.82;;;9.05;;
61903;SDS011;47857;52.270;6.804;2024-01-30T08:06:54;12.15;;;8.27;;
61903;SDS011;47857;52.270;6.804;2024-01-30T08:09:20;13.32;;;8.60;;
61903;SDS011;47857;52.270;6.804;2024-01-30T08:11:45;13.40;;;8.40;;
61903;SDS011;47857;52.270;6.804;2024-01-30T08:14:11;12.35;;;8.23;;
61903;SDS011;47857;52.270;6.804;2024-01-30T08:16:38;11.18;;;7.88;;
61903;SDS011;47857;52.270;6.804;2024-01-30T08:19:04;12.85;;;8.45;;
61903;SDS011;47857;52.270;6.804;2024-01-30T08:21:30;13.98;;;8.15;;
61903;SDS011;47857;52.270;6.804;2024-01-30T08:23:55;14.50;;;8.23;;
61903;SDS011;47857;52.270;6.804;2024-01-30T08:26:21;14.05;;;8.15;;
61903;SDS011;47857;52.270;6.804;2024-01-30T08:28:46;15.00;;;8.07;;
61903;SDS011;47857;52.270;6.804;2024-01-30T08:31:12;15.18;;;8.45;;
61903;SDS011;47857;52.270;6.804;2024-01-30T08:33:37;15.27;;;8.73;;
61903;SDS011;47857;52.270;6.804;2024-01-30T08:36:03;14.57;;;8.45;;
61903;SDS011;47857;52.270;6.804;2024-01-30T08:38:28;13.48;;;8.00;;
61903;SDS011;47857;52.270;6.804;2024-01-30T08:40:54;13.80;;;8.15;;
61903;SDS011;47857;52.270;6.804;2024-01-30T08:43:21;11.77;;;7.57;;
61903;SDS011;47857;52.270;6.804;2024-01-30T08:45:46;16.33;;;7.85;;
61903;SDS011;47857;52.270;6.804;2024-01-30T08:48:12;13.52;;;7.47;;
61903;SDS011;47857;52.270;6.804;2024-01-30T08:50:38;14.02;;;7.55;;
61903;SDS011;47857;52.270;6.804;2024-01-30T08:53:06;14.52;;;8.02;;
61903;SDS011;47857;52.270;6.804;2024-01-30T08:55:32;13.40;;;7.93;;
61903;SDS011;47857;52.270;6.804;2024-01-30T08:57:57;12.05;;;7.63;;
61903;SDS011;47857;52.270;6.804;2024-01-30T09:00:23;13.27;;;8.18;;
61903;SDS011;47857;52.270;6.804;2024-01-30T09:02:48;10.50;;;7.65;;
61903;SDS011;47857;52.270;6.804;2024-01-30T09:05:14;10.93;;;7.50;;
61903;SDS011;47857;52.270;6.804;2024-01-30T09:07:40;12.32;;;7.65;;
61903;SDS011;47857;52.270;6.804;2024-01-30T09:10:06;13.20;;;8.32;;
61903;SDS011;47857;52.270;6.804;2024-01-30T09:12:31;14.48;;;7.90;;
61903;SDS011;47857;52.270;6.804;2024-01-30T09:14:57;12.48;;;7.72;;
61903;SDS011;47857;52.270;6.804;2024-01-30T09:17:23;13.07;;;7.60;;
61903;SDS011;47857;52.270;6.804;2024-01-30T09:19:48;12.90;;;7.50;;
61903;SDS011;47857;52.270;6.804;2024-01-30T09:22:14;11.13;;;7.78;;
61903;SDS011;47857;52.270;6.804;2024-01-30T09:24:40;13.30;;;8.27;;
61903;SDS011;47857;52.270;6.804;2024-01-30T09:27:05;12.50;;;7.95;;
61903;SDS011;47857;52.270;6.804;2024-01-30T09:29:31;13.48;;;7.82;;
61903;SDS011;47857;52.270;6.804;2024-01-30T09:32:02;10.63;;;7.57;;
61903;SDS011;47857;52.270;6.804;2024-01-30T09:34:32;13.60;;;7.70;;
61903;SDS011;47857;52.270;6.804;2024-01-30T09:39:58;15.32;;;8.10;;
61903;SDS011;47857;52.270;6.804;2024-01-30T09:44:59;15.35;;;8.50;;
61903;SDS011;47857;52.270;6.804;2024-01-30T09:47:25;16.15;;;8.68;;
61903;SDS011;47857;52.270;6.804;2024-01-30T09:49:51;11.95;;;7.97;;
61903;SDS011;47857;52.270;6.804;2024-01-30T09:52:17;14.27;;;7.63;;
61903;SDS011;47857;52.270;6.804;2024-01-30T09:54:43;13.00;;;7.72;;
61903;SDS011;47857;52.270;6.804;2024-01-30T09:57:31;19.33;;;8.20;;
61903;SDS011;47857;52.270;6.804;2024-01-30T09:59:56;15.65;;;7.80;;
61903;SDS011;47857;52.270;6.804;2024-01-30T10:02:24;13.27;;;7.95;;
61903;SDS011;47857;52.270;6.804;2024-01-30T10:04:50;12.55;;;8.13;;
61903;SDS011;47857;52.270;6.804;2024-01-30T10:07:17;11.00;;;8.18;;
61903;SDS011;47857;52.270;6.804;2024-01-30T10:09:43;12.70;;;7.50;;
61903;SDS011;47857;52.270;6.804;2024-01-30T10:12:09;15.05;;;8.02;;
61903;SDS011;47857;52.270;6.804;2024-01-30T10:14:43;13.98;;;7.45;;
61903;SDS011;47857;52.270;6.804;2024-01-30T10:17:09;14.02;;;7.55;;
61903;SDS011;47857;52.270;6.804;2024-01-30T10:19:36;13.50;;;7.50;;
61903;SDS011;47857;52.270;6.804;2024-01-30T10:22:05;12.70;;;7.82;;
61903;SDS011;47857;52.270;6.804;2024-01-30T10:24:31;15.75;;;7.75;;
61903;SDS011;47857;52.270;6.804;2024-01-30T10:26:58;12.32;;;8.23;;
61903;SDS011;47857;52.270;6.804;2024-01-30T10:29:24;16.23;;;8.00;;
61903;SDS011;47857;52.270;6.804;2024-01-30T10:32:02;16.27;;;8.13;;
61903;SDS011;47857;52.270;6.804;2024-01-30T10:34:28;13.00;;;7.82;;
61903;SDS011;47857;52.270;6.804;2024-01-30T10:36:58;10.27;;;7.60;;
61903;SDS011;47857;52.270;6.804;2024-01-30T10:39:46;14.68;;;7.88;;
61903;SDS011;47857;52.270;6.804;2024-01-30T10:42:15;13.10;;;8.52;;
61903;SDS011;47857;52.270;6.804;2024-01-30T10:47:34;13.40;;;7.68;;
61903;SDS011;47857;52.270;6.804;2024-01-30T10:50:03;18.55;;;8.48;;
61903;SDS011;47857;52.270;6.804;2024-01-30T10:52:30;13.10;;;7.97;;
61903;SDS011;47857;52.270;6.804;2024-01-30T10:54:57;14.23;;;8.07;;
61903;SDS011;47857;52.270;6.804;2024-01-30T10:57:23;17.40;;;8.15;;
61903;SDS011;47857;52.270;6.804;2024-01-30T10:59:50;15.60;;;8.30;;
61903;SDS011;47857;52.270;6.804;2024-01-30T11:02:23;14.25;;;8.40;;
61903;SDS011;47857;52.270;6.804;2024-01-30T11:07:29;13.23;;;8.52;;
61903;SDS011;47857;52.270;6.804;2024-01-30T11:12:23;14.98;;;9.00;;
61903;SDS011;47857;52.270;6.804;2024-01-30T11:14:50;14.32;;;7.63;;
61903;SDS011;47857;52.270;6.804;2024-01-30T11:17:28;13.80;;;8.63;;
61903;SDS011;47857;52.270;6.804;2024-01-30T11:19:53;12.25;;;8.32;;
61903;SDS011;47857;52.270;6.804;2024-01-30T11:22:22;12.40;;;8.18;;
61903;SDS011;47857;52.270;6.804;2024-01-30T11:24:47;13.38;;;8.00;;
61903;SDS011;47857;52.270;6.804;2024-01-30T11:27:13;15.90;;;8.32;;
61903;SDS011;47857;52.270;6.804;2024-01-30T11:29:40;13.63;;;8.32;;
61903;SDS011;47857;52.270;6.804;2024-01-30T11:32:06;13.70;;;7.97;;
61903;SDS011;47857;52.270;6.804;2024-01-30T11:34:32;14.40;;;8.02;;
61903;SDS011;47857;52.270;6.804;2024-01-30T11:37:01;13.80;;;7.93;;
61903;SDS011;47857;52.270;6.804;2024-01-30T11:39:31;12.80;;;8.30;;
61903;SDS011;47857;52.270;6.804;2024-01-30T11:41:57;14.15;;;8.57;;
61903;SDS011;47857;52.270;6.804;2024-01-30T11:44:23;13.15;;;8.10;;
61903;SDS011;47857;52.270;6.804;2024-01-30T11:46:52;12.70;;;8.40;;
61903;SDS011;47857;52.270;6.804;2024-01-30T11:49:18;12.88;;;8.15;;
61903;SDS011;47857;52.270;6.804;2024-01-30T11:51:49;14.43;;;8.43;;
61903;SDS011;47857;52.270;6.804;2024-01-30T11:54:15;14.25;;;8.07;;
61903;SDS011;47857;52.270;6.804;2024-01-30T11:56:49;16.40;;;8.55;;
61903;SDS011;47857;52.270;6.804;2024-01-30T11:59:17;13.95;;;8.10;;
61903;SDS011;47857;52.270;6.804;2024-01-30T12:01:43;14.55;;;8.50;;
61903;SDS011;47857;52.270;6.804;2024-01-30T12:04:09;13.63;;;8.75;;
61903;SDS011;47857;52.270;6.804;2024-01-30T12:06:35;14.88;;;8.63;;
61903;SDS011;47857;52.270;6.804;2024-01-30T12:09:02;10.25;;;8.55;;
61903;SDS011;47857;52.270;6.804;2024-01-30T12:11:33;14.70;;;8.45;;
61903;SDS011;47857;52.270;6.804;2024-01-30T12:13:59;18.58;;;9.75;;
61903;SDS011;47857;52.270;6.804;2024-01-30T12:16:25;15.00;;;9.60;;
61903;SDS011;47857;52.270;6.804;2024-01-30T12:18:58;14.73;;;8.85;;
61903;SDS011;47857;52.270;6.804;2024-01-30T12:21:25;14.40;;;8.88;;
61903;SDS011;47857;52.270;6.804;2024-01-30T12:23:50;14.98;;;8.57;;
61903;SDS011;47857;52.270;6.804;2024-01-30T12:26:16;17.77;;;9.30;;
61903;SDS011;47857;52.270;6.804;2024-01-30T12:28:48;19.45;;;9.35;;
61903;SDS011;47857;52.270;6.804;2024-01-30T12:31:15;17.17;;;9.35;;
61903;SDS011;47857;52.270;6.804;2024-01-30T12:33:43;12.73;;;7.82;;
61903;SDS011;47857;52.270;6.804;2024-01-30T12:36:09;15.82;;;9.30;;
61903;SDS011;47857;52.270;6.804;2024-01-30T12:38:34;14.38;;;9.20;;
61903;SDS011;47857;52.270;6.804;2024-01-30T12:41:03;14.23;;;8.23;;
61903;SDS011;47857;52.270;6.804;2024-01-30T12:43:29;14.45;;;8.18;;
61903;SDS011;47857;52.270;6.804;2024-01-30T12:45:55;13.63;;;8.02;;
61903;SDS011;47857;52.270;6.804;2024-01-30T12:48:21;14.65;;;7.80;;
61903;SDS011;47857;52.270;6.804;2024-01-30T12:50:46;12.50;;;7.88;;
61903;SDS011;47857;52.270;6.804;2024-01-30T12:53:20;16.05;;;8.15;;
61903;SDS011;47857;52.270;6.804;2024-01-30T12:55:46;13.85;;;8.25;;
61903;SDS011;47857;52.270;6.804;2024-01-30T12:58:12;13.70;;;7.65;;
61903;SDS011;47857;52.270;6.804;2024-01-30T13:00:37;12.98;;;7.47;;
61903;SDS011;47857;52.270;6.804;2024-01-30T13:03:03;12.27;;;7.90;;
61903;SDS011;47857;52.270;6.804;2024-01-30T13:05:29;12.23;;;7.88;;
61903;SDS011;47857;52.270;6.804;2024-01-30T13:07:55;11.48;;;6.82;;
61903;SDS011;47857;52.270;6.804;2024-01-30T13:10:22;14.13;;;6.72;;
61903;SDS011;47857;52.270;6.804;2024-01-30T13:12:50;10.40;;;6.53;;
61903;SDS011;47857;52.270;6.804;2024-01-30T13:15:16;14.52;;;6.35;;
61903;SDS011;47857;52.270;6.804;2024-01-30T13:17:41;11.95;;;6.05;;
61903;SDS011;47857;52.270;6.804;2024-01-30T13:20:08;10.63;;;6.22;;
61903;SDS011;47857;52.270;6.804;2024-01-30T13:22:34;10.65;;;5.93;;
61903;SDS011;47857;52.270;6.804;2024-01-30T13:25:00;12.20;;;6.00;;
61903;SDS011;47857;52.270;6.804;2024-01-30T13:27:25;11.13;;;5.78;;
61903;SDS011;47857;52.270;6.804;2024-01-30T13:29:51;10.27;;;5.60;;
61903;SDS011;47857;52.270;6.804;2024-01-30T13:32:16;9.60;;;5.93;;
61903;SDS011;47857;52.270;6.804;2024-01-30T13:34:42;11.27;;;6.70;;
61903;SDS011;47857;52.270;6.804;2024-01-30T13:37:08;9.43;;;5.90;;
61903;SDS011;47857;52.270;6.804;2024-01-30T13:39:34;11.43;;;6.22;;
61903;SDS011;47857;52.270;6.804;2024-01-30T13:42:02;10.90;;;5.90;;
61903;SDS011;47857;52.270;6.804;2024-01-30T13:44:30;8.60;;;5.57;;
61903;SDS011;47857;52.270;6.804;2024-01-30T13:46:56;9.38;;;5.53;;
61903;SDS011;47857;52.270;6.804;2024-01-30T13:52:09;12.27;;;5.90;;
61903;SDS011;47857;52.270;6.804;2024-01-30T13:54:35;11.07;;;5.38;;
61903;SDS011;47857;52.270;6.804;2024-01-30T13:57:00;10.45;;;5.70;;
61903;SDS011;47857;52.270;6.804;2024-01-30T13:59:43;11.20;;;4.63;;
61903;SDS011;47857;52.270;6.804;2024-01-30T14:02:09;8.02;;;4.15;;
61903;SDS011;47857;52.270;6.804;2024-01-30T14:04:35;9.40;;;4.00;;
61903;SDS011;47857;52.270;6.804;2024-01-30T14:07:02;7.65;;;3.85;;
61903;SDS011;47857;52.270;6.804;2024-01-30T14:09:28;9.48;;;3.20;;
61903;SDS011;47857;52.270;6.804;2024-01-30T14:11:54;7.60;;;3.00;;
61903;SDS011;47857;52.270;6.804;2024-01-30T14:14:20;11.13;;;2.70;;
61903;SDS011;47857;52.270;6.804;2024-01-30T14:16:45;5.53;;;1.88;;
61903;SDS011;47857;52.270;6.804;2024-01-30T14:19:11;6.10;;;2.10;;
61903;SDS011;47857;52.270;6.804;2024-01-30T14:21:37;6.05;;;2.10;;
61903;SDS011;47857;52.270;6.804;2024-01-30T14:24:02;9.40;;;3.35;;
61903;SDS011;47857;52.270;6.804;2024-01-30T14:26:28;6.10;;;2.67;;
61903;SDS011;47857;52.270;6.804;2024-01-30T14:28:54;8.07;;;2.78;;
61903;SDS011;47857;52.270;6.804;2024-01-30T14:31:20;13.90;;;5.55;;
61903;SDS011;47857;52.270;6.804;2024-01-30T14:33:46;7.00;;;2.60;;
61903;SDS011;47857;52.270;6.804;2024-01-30T14:36:12;7.82;;;1.98;;
61903;SDS011;47857;52.270;6.804;2024-01-30T14:38:39;9.45;;;2.60;;
61903;SDS011;47857;52.270;6.804;2024-01-30T14:41:04;5.70;;;1.77;;
61903;SDS011;47857;52.270;6.804;2024-01-30T14:43:31;6.75;;;1.83;;